sensor_id;sensor_type;location;lat;lon;timestamp;temperature;humidity
11532;DHT22;5822;51.000;5.874;2023-04-16T00:01:28;10.60;99.90
11532;DHT22;5822;51.000;5.874;2023-04-16T00:03:54;10.60;99.90
11532;DHT22;5822;51.000;5.874;2023-04-16T00:06:19;10.70;99.90
11532;DHT22;5822;51.000;5.874;2023-04-16T00:08:45;10.60;99.90
11532;DHT22;5822;51.000;5.874;2023-04-16T00:11:11;10.60;99.90
11532;DHT22;5822;51.000;5.874;2023-04-16T00:13:37;10.60;99.90
11532;DHT22;5822;51.000;5.874;2023-04-16T00:16:02;10.60;99.90
11532;DHT22;5822;51.000;5.874;2023-04-16T00:18:28;10.60;99.90
11532;DHT22;5822;51.000;5.874;2023-04-16T00:20:54;10.60;99.90
11532;DHT22;5822;51.000;5.874;2023-04-16T00:23:19;10.60;99.90
11532;DHT22;5822;51.000;5.874;2023-04-16T00:25:45;10.60;99.90
11532;DHT22;5822;51.000;5.874;2023-04-16T00:28:11;10.50;99.90
11532;DHT22;5822;51.000;5.874;2023-04-16T00:30:37;10.50;99.90
11532;DHT22;5822;51.000;5.874;2023-04-16T00:33:02;10.60;99.90
11532;DHT22;5822;51.000;5.874;2023-04-16T00:35:29;10.70;99.90
11532;DHT22;5822;51.000;5.874;2023-04-16T00:37:55;10.60;99.90
11532;DHT22;5822;51.000;5.874;2023-04-16T00:40:20;10.70;99.90
11532;DHT22;5822;51.000;5.874;2023-04-16T00:42:46;10.70;99.90
11532;DHT22;5822;51.000;5.874;2023-04-16T00:45:12;10.70;99.90
11532;DHT22;5822;51.000;5.874;2023-04-16T00:47:37;10.70;99.90
11532;DHT22;5822;51.000;5.874;2023-04-16T00:50:04;10.70;99.90
11532;DHT22;5822;51.000;5.874;2023-04-16T00:52:33;10.70;99.90
11532;DHT22;5822;51.000;5.874;2023-04-16T00:54:59;10.80;99.90
11532;DHT22;5822;51.000;5.874;2023-04-16T00:57:25;10.80;99.90
11532;DHT22;5822;51.000;5.874;2023-04-16T00:59:51;10.80;99.90
11532;DHT22;5822;51.000;5.874;2023-04-16T01:02:17;10.80;99.90
11532;DHT22;5822;51.000;5.874;2023-04-16T01:04:43;10.80;99.90
11532;DHT22;5822;51.000;5.874;2023-04-16T01:07:08;10.80;99.90
11532;DHT22;5822;51.000;5.874;2023-04-16T01:09:34;10.80;99.90
11532;DHT22;5822;51.000;5.874;2023-04-16T01:11:59;10.80;99.90
11532;DHT22;5822;51.000;5.874;2023-04-16T01:14:26;10.80;99.90
11532;DHT22;5822;51.000;5.874;2023-04-16T01:16:52;10.90;99.90
11532;DHT22;5822;51.000;5.874;2023-04-16T01:19:17;10.80;99.90
11532;DHT22;5822;51.000;5.874;2023-04-16T01:21:43;10.70;99.90
11532;DHT22;5822;51.000;5.874;2023-04-16T01:24:08;10.80;99.90
11532;DHT22;5822;51.000;5.874;2023-04-16T01:26:34;10.80;99.90
11532;DHT22;5822;51.000;5.874;2023-04-16T01:29:01;10.80;99.90
11532;DHT22;5822;51.000;5.874;2023-04-16T01:31:26;10.80;99.90
11532;DHT22;5822;51.000;5.874;2023-04-16T01:33:52;10.70;99.90
11532;DHT22;5822;51.000;5.874;2023-04-16T01:36:18;10.70;99.90
11532;DHT22;5822;51.000;5.874;2023-04-16T01:38:43;10.70;99.90
11532;DHT22;5822;51.000;5.874;2023-04-16T01:41:09;10.70;99.90
11532;DHT22;5822;51.000;5.874;2023-04-16T01:43:35;10.70;99.90
11532;DHT22;5822;51.000;5.874;2023-04-16T01:49:04;10.80;99.90
11532;DHT22;5822;51.000;5.874;2023-04-16T01:51:31;10.70;99.90
11532;DHT22;5822;51.000;5.874;2023-04-16T01:53:57;10.70;99.90
11532;DHT22;5822;51.000;5.874;2023-04-16T01:56:23;10.70;99.90
11532;DHT22;5822;51.000;5.874;2023-04-16T01:58:48;10.70;99.90
11532;DHT22;5822;51.000;5.874;2023-04-16T02:01:14;10.70;99.90
11532;DHT22;5822;51.000;5.874;2023-04-16T02:03:40;10.70;99.90
11532;DHT22;5822;51.000;5.874;2023-04-16T02:06:06;10.70;99.90
11532;DHT22;5822;51.000;5.874;2023-04-16T02:08:32;10.80;99.90
11532;DHT22;5822;51.000;5.874;2023-04-16T02:10:57;10.70;99.90
11532;DHT22;5822;51.000;5.874;2023-04-16T02:13:23;10.70;99.90
11532;DHT22;5822;51.000;5.874;2023-04-16T02:15:51;10.70;99.90
11532;DHT22;5822;51.000;5.874;2023-04-16T02:18:16;10.70;99.90
11532;DHT22;5822;51.000;5.874;2023-04-16T02:20:43;10.70;99.90
11532;DHT22;5822;51.000;5.874;2023-04-16T02:23:09;10.70;99.90
11532;DHT22;5822;51.000;5.874;2023-04-16T02:25:40;10.80;99.90
11532;DHT22;5822;51.000;5.874;2023-04-16T02:28:10;10.80;99.90
11532;DHT22;5822;51.000;5.874;2023-04-16T02:30:37;10.80;99.90
11532;DHT22;5822;51.000;5.874;2023-04-16T02:33:03;10.80;99.90
11532;DHT22;5822;51.000;5.874;2023-04-16T02:35:30;10.80;99.90
11532;DHT22;5822;51.000;5.874;2023-04-16T02:37:57;10.80;99.90
11532;DHT22;5822;51.000;5.874;2023-04-16T02:40:23;10.80;99.90
11532;DHT22;5822;51.000;5.874;2023-04-16T02:42:48;10.80;99.90
11532;DHT22;5822;51.000;5.874;2023-04-16T02:45:14;10.90;99.90
11532;DHT22;5822;51.000;5.874;2023-04-16T02:47:40;10.80;99.90
11532;DHT22;5822;51.000;5.874;2023-04-16T02:50:06;10.80;99.90
11532;DHT22;5822;51.000;5.874;2023-04-16T02:52:32;10.90;99.90
11532;DHT22;5822;51.000;5.874;2023-04-16T02:54:58;10.90;99.90
11532;DHT22;5822;51.000;5.874;2023-04-16T02:57:24;10.90;99.90
11532;DHT22;5822;51.000;5.874;2023-04-16T02:59:50;10.90;99.90
11532;DHT22;5822;51.000;5.874;2023-04-16T03:02:15;10.80;99.90
11532;DHT22;5822;51.000;5.874;2023-04-16T03:04:41;10.80;99.90
11532;DHT22;5822;51.000;5.874;2023-04-16T03:07:07;10.80;99.90
11532;DHT22;5822;51.000;5.874;2023-04-16T03:09:34;10.80;99.90
11532;DHT22;5822;51.000;5.874;2023-04-16T03:12:00;10.80;99.90
11532;DHT22;5822;51.000;5.874;2023-04-16T03:14:29;10.70;99.90
11532;DHT22;5822;51.000;5.874;2023-04-16T03:16:55;10.80;99.90
11532;DHT22;5822;51.000;5.874;2023-04-16T03:19:21;10.80;99.90
11532;DHT22;5822;51.000;5.874;2023-04-16T03:21:46;10.80;99.90
11532;DHT22;5822;51.000;5.874;2023-04-16T03:24:12;10.80;99.90
11532;DHT22;5822;51.000;5.874;2023-04-16T03:26:38;10.80;99.90
11532;DHT22;5822;51.000;5.874;2023-04-16T03:29:03;10.90;99.90
11532;DHT22;5822;51.000;5.874;2023-04-16T03:31:29;10.90;99.90
11532;DHT22;5822;51.000;5.874;2023-04-16T03:33:55;10.90;99.90
11532;DHT22;5822;51.000;5.874;2023-04-16T03:36:21;10.90;99.90
11532;DHT22;5822;51.000;5.874;2023-04-16T03:38:48;10.90;99.90
11532;DHT22;5822;51.000;5.874;2023-04-16T03:41:13;10.90;99.90
11532;DHT22;5822;51.000;5.874;2023-04-16T03:43:39;10.90;99.90
11532;DHT22;5822;51.000;5.874;2023-04-16T03:46:05;10.90;99.90
11532;DHT22;5822;51.000;5.874;2023-04-16T03:48:31;10.80;99.90
11532;DHT22;5822;51.000;5.874;2023-04-16T03:50:57;10.80;99.90
11532;DHT22;5822;51.000;5.874;2023-04-16T03:53:22;10.80;99.90
11532;DHT22;5822;51.000;5.874;2023-04-16T03:55:49;10.80;99.90
11532;DHT22;5822;51.000;5.874;2023-04-16T03:58:18;10.90;99.90
11532;DHT22;5822;51.000;5.874;2023-04-16T04:00:44;10.90;99.90
11532;DHT22;5822;51.000;5.874;2023-04-16T04:03:10;10.90;99.90
11532;DHT22;5822;51.000;5.874;2023-04-16T04:05:40;10.90;99.90
11532;DHT22;5822;51.000;5.874;2023-04-16T04:08:06;10.80;99.90
11532;DHT22;5822;51.000;5.874;2023-04-16T04:10:35;10.80;99.90
11532;DHT22;5822;51.000;5.874;2023-04-16T04:13:02;10.80;99.90
11532;DHT22;5822;51.000;5.874;2023-04-16T04:15:28;10.80;99.90
11532;DHT22;5822;51.000;5.874;2023-04-16T04:17:54;10.80;99.90
11532;DHT22;5822;51.000;5.874;2023-04-16T04:20:20;10.80;99.90
11532;DHT22;5822;51.000;5.874;2023-04-16T04:22:46;10.80;99.90
11532;DHT22;5822;51.000;5.874;2023-04-16T04:25:12;10.80;99.90
11532;DHT22;5822;51.000;5.874;2023-04-16T04:27:38;10.80;99.90
11532;DHT22;5822;51.000;5.874;2023-04-16T04:30:04;10.80;99.90
11532;DHT22;5822;51.000;5.874;2023-04-16T04:32:30;10.90;99.90
11532;DHT22;5822;51.000;5.874;2023-04-16T04:34:56;10.80;99.90
11532;DHT22;5822;51.000;5.874;2023-04-16T04:37:22;10.80;99.90
11532;DHT22;5822;51.000;5.874;2023-04-16T04:39:48;10.80;99.90
11532;DHT22;5822;51.000;5.874;2023-04-16T04:42:16;10.70;99.90
11532;DHT22;5822;51.000;5.874;2023-04-16T04:44:42;10.80;99.90
11532;DHT22;5822;51.000;5.874;2023-04-16T04:47:08;10.80;99.90
11532;DHT22;5822;51.000;5.874;2023-04-16T04:49:34;10.80;99.90
11532;DHT22;5822;51.000;5.874;2023-04-16T04:51:59;10.80;99.90
11532;DHT22;5822;51.000;5.874;2023-04-16T04:54:27;10.90;99.90
11532;DHT22;5822;51.000;5.874;2023-04-16T04:56:52;10.90;99.90
11532;DHT22;5822;51.000;5.874;2023-04-16T04:59:19;10.90;99.90
11532;DHT22;5822;51.000;5.874;2023-04-16T05:01:46;10.90;99.90
11532;DHT22;5822;51.000;5.874;2023-04-16T05:04:11;10.90;99.90
11532;DHT22;5822;51.000;5.874;2023-04-16T05:06:37;10.80;99.90
11532;DHT22;5822;51.000;5.874;2023-04-16T05:09:02;10.80;99.90
11532;DHT22;5822;51.000;5.874;2023-04-16T05:11:28;10.90;99.90
11532;DHT22;5822;51.000;5.874;2023-04-16T05:13:54;10.80;99.90
11532;DHT22;5822;51.000;5.874;2023-04-16T05:16:20;10.90;99.90
11532;DHT22;5822;51.000;5.874;2023-04-16T05:18:46;10.90;99.90
11532;DHT22;5822;51.000;5.874;2023-04-16T05:21:11;10.80;99.90
11532;DHT22;5822;51.000;5.874;2023-04-16T05:23:37;10.90;99.90
11532;DHT22;5822;51.000;5.874;2023-04-16T05:26:03;11.00;99.90
11532;DHT22;5822;51.000;5.874;2023-04-16T05:28:29;10.90;99.90
11532;DHT22;5822;51.000;5.874;2023-04-16T05:30:55;10.90;99.90
11532;DHT22;5822;51.000;5.874;2023-04-16T05:33:21;11.00;99.90
11532;DHT22;5822;51.000;5.874;2023-04-16T05:35:46;11.00;99.90
11532;DHT22;5822;51.000;5.874;2023-04-16T05:38:12;11.00;99.90
11532;DHT22;5822;51.000;5.874;2023-04-16T05:40:37;11.00;99.90
11532;DHT22;5822;51.000;5.874;2023-04-16T05:43:03;11.00;99.90
11532;DHT22;5822;51.000;5.874;2023-04-16T05:45:29;11.10;99.90
11532;DHT22;5822;51.000;5.874;2023-04-16T05:47:57;11.00;99.90
11532;DHT22;5822;51.000;5.874;2023-04-16T05:50:23;11.00;99.90
11532;DHT22;5822;51.000;5.874;2023-04-16T05:52:48;11.00;99.90
11532;DHT22;5822;51.000;5.874;2023-04-16T05:55:14;11.00;99.90
11532;DHT22;5822;51.000;5.874;2023-04-16T05:57:40;11.00;99.90
11532;DHT22;5822;51.000;5.874;2023-04-16T06:00:06;11.00;99.90
11532;DHT22;5822;51.000;5.874;2023-04-16T06:02:32;11.00;99.90
11532;DHT22;5822;51.000;5.874;2023-04-16T06:04:57;11.00;99.90
11532;DHT22;5822;51.000;5.874;2023-04-16T06:07:23;11.00;99.90
11532;DHT22;5822;51.000;5.874;2023-04-16T06:09:49;11.10;99.90
11532;DHT22;5822;51.000;5.874;2023-04-16T06:12:14;11.10;99.90
11532;DHT22;5822;51.000;5.874;2023-04-16T06:14:40;11.10;99.90
11532;DHT22;5822;51.000;5.874;2023-04-16T06:17:05;11.10;99.90
11532;DHT22;5822;51.000;5.874;2023-04-16T06:19:31;11.10;99.90
11532;DHT22;5822;51.000;5.874;2023-04-16T06:21:57;11.10;99.90
11532;DHT22;5822;51.000;5.874;2023-04-16T06:24:22;11.00;99.90
11532;DHT22;5822;51.000;5.874;2023-04-16T06:26:48;11.10;99.90
11532;DHT22;5822;51.000;5.874;2023-04-16T06:29:14;11.10;99.90
11532;DHT22;5822;51.000;5.874;2023-04-16T06:31:39;11.10;99.90
11532;DHT22;5822;51.000;5.874;2023-04-16T06:34:05;11.10;99.90
11532;DHT22;5822;51.000;5.874;2023-04-16T06:36:31;11.00;99.90
11532;DHT22;5822;51.000;5.874;2023-04-16T06:38:57;11.00;99.90
11532;DHT22;5822;51.000;5.874;2023-04-16T06:41:22;11.00;99.90
11532;DHT22;5822;51.000;5.874;2023-04-16T06:43:50;11.00;99.90
11532;DHT22;5822;51.000;5.874;2023-04-16T06:46:15;11.10;99.90
11532;DHT22;5822;51.000;5.874;2023-04-16T06:48:41;11.00;99.90
11532;DHT22;5822;51.000;5.874;2023-04-16T06:51:07;11.10;99.90
11532;DHT22;5822;51.000;5.874;2023-04-16T06:53:33;11.10;99.90
11532;DHT22;5822;51.000;5.874;2023-04-16T06:55:59;11.00;99.90
11532;DHT22;5822;51.000;5.874;2023-04-16T06:58:24;11.10;99.90
11532;DHT22;5822;51.000;5.874;2023-04-16T07:00:50;11.10;99.90
11532;DHT22;5822;51.000;5.874;2023-04-16T07:03:16;11.20;99.90
11532;DHT22;5822;51.000;5.874;2023-04-16T07:05:41;11.20;99.90
11532;DHT22;5822;51.000;5.874;2023-04-16T07:08:07;11.20;99.90
11532;DHT22;5822;51.000;5.874;2023-04-16T07:10:33;11.20;99.90
11532;DHT22;5822;51.000;5.874;2023-04-16T07:12:59;11.20;99.90
11532;DHT22;5822;51.000;5.874;2023-04-16T07:15:26;11.20;99.90
11532;DHT22;5822;51.000;5.874;2023-04-16T07:17:52;11.20;99.90
11532;DHT22;5822;51.000;5.874;2023-04-16T07:20:17;11.20;99.90
11532;DHT22;5822;51.000;5.874;2023-04-16T07:22:43;11.30;99.90
11532;DHT22;5822;51.000;5.874;2023-04-16T07:25:09;11.20;99.90
11532;DHT22;5822;51.000;5.874;2023-04-16T07:27:34;11.10;99.90
11532;DHT22;5822;51.000;5.874;2023-04-16T07:30:00;11.20;99.90
11532;DHT22;5822;51.000;5.874;2023-04-16T07:32:26;11.20;99.90
11532;DHT22;5822;51.000;5.874;2023-04-16T07:34:51;11.10;99.90
11532;DHT22;5822;51.000;5.874;2023-04-16T07:37:17;11.10;99.90
11532;DHT22;5822;51.000;5.874;2023-04-16T07:39:42;11.10;99.90
11532;DHT22;5822;51.000;5.874;2023-04-16T07:42:08;11.10;99.90
11532;DHT22;5822;51.000;5.874;2023-04-16T07:44:34;11.20;99.90
11532;DHT22;5822;51.000;5.874;2023-04-16T07:47:00;11.20;99.90
11532;DHT22;5822;51.000;5.874;2023-04-16T07:49:25;11.20;99.90
11532;DHT22;5822;51.000;5.874;2023-04-16T07:51:51;11.10;99.90
11532;DHT22;5822;51.000;5.874;2023-04-16T07:54:17;11.20;99.90
11532;DHT22;5822;51.000;5.874;2023-04-16T07:56:42;11.20;99.90
11532;DHT22;5822;51.000;5.874;2023-04-16T07:59:08;11.10;99.90
11532;DHT22;5822;51.000;5.874;2023-04-16T08:01:34;11.10;99.90
11532;DHT22;5822;51.000;5.874;2023-04-16T08:03:59;11.10;99.90
11532;DHT22;5822;51.000;5.874;2023-04-16T08:06:25;11.10;99.90
11532;DHT22;5822;51.000;5.874;2023-04-16T08:08:51;11.20;99.90
11532;DHT22;5822;51.000;5.874;2023-04-16T08:11:16;11.20;99.90
11532;DHT22;5822;51.000;5.874;2023-04-16T08:13:42;11.20;99.90
11532;DHT22;5822;51.000;5.874;2023-04-16T08:16:08;11.20;99.90
11532;DHT22;5822;51.000;5.874;2023-04-16T08:18:34;11.20;99.90
11532;DHT22;5822;51.000;5.874;2023-04-16T08:20:59;11.20;99.90
11532;DHT22;5822;51.000;5.874;2023-04-16T08:23:25;11.20;99.90
11532;DHT22;5822;51.000;5.874;2023-04-16T08:25:51;11.20;99.90
11532;DHT22;5822;51.000;5.874;2023-04-16T08:28:17;11.30;99.90
11532;DHT22;5822;51.000;5.874;2023-04-16T08:30:42;11.20;99.90
11532;DHT22;5822;51.000;5.874;2023-04-16T08:33:10;11.20;99.90
11532;DHT22;5822;51.000;5.874;2023-04-16T08:35:35;11.20;99.90
11532;DHT22;5822;51.000;5.874;2023-04-16T08:38:03;11.20;99.90
11532;DHT22;5822;51.000;5.874;2023-04-16T08:40:30;11.20;99.90
11532;DHT22;5822;51.000;5.874;2023-04-16T08:42:58;11.20;99.90
11532;DHT22;5822;51.000;5.874;2023-04-16T08:45:25;11.30;99.90
11532;DHT22;5822;51.000;5.874;2023-04-16T08:47:52;11.30;99.90
11532;DHT22;5822;51.000;5.874;2023-04-16T08:50:27;11.30;99.90
11532;DHT22;5822;51.000;5.874;2023-04-16T08:53:03;11.30;99.90
11532;DHT22;5822;51.000;5.874;2023-04-16T08:55:36;11.40;99.90
11532;DHT22;5822;51.000;5.874;2023-04-16T08:58:12;11.30;99.90
11532;DHT22;5822;51.000;5.874;2023-04-16T09:00:38;11.30;99.90
11532;DHT22;5822;51.000;5.874;2023-04-16T09:03:05;11.30;99.90
11532;DHT22;5822;51.000;5.874;2023-04-16T09:05:32;11.30;99.90
11532;DHT22;5822;51.000;5.874;2023-04-16T09:07:58;11.30;99.90
11532;DHT22;5822;51.000;5.874;2023-04-16T09:10:25;11.30;99.90
11532;DHT22;5822;51.000;5.874;2023-04-16T09:12:51;11.40;99.90
11532;DHT22;5822;51.000;5.874;2023-04-16T09:15:19;11.30;99.90
11532;DHT22;5822;51.000;5.874;2023-04-16T09:17:45;11.30;99.90
11532;DHT22;5822;51.000;5.874;2023-04-16T09:20:11;11.40;99.90
11532;DHT22;5822;51.000;5.874;2023-04-16T09:22:38;11.40;99.90
11532;DHT22;5822;51.000;5.874;2023-04-16T09:25:07;11.40;99.90
11532;DHT22;5822;51.000;5.874;2023-04-16T09:27:32;11.40;99.90
11532;DHT22;5822;51.000;5.874;2023-04-16T09:29:58;11.40;99.90
11532;DHT22;5822;51.000;5.874;2023-04-16T09:32:25;11.40;99.90
11532;DHT22;5822;51.000;5.874;2023-04-16T09:34:59;11.40;99.90
11532;DHT22;5822;51.000;5.874;2023-04-16T09:37:29;11.50;99.90
11532;DHT22;5822;51.000;5.874;2023-04-16T09:39:59;11.50;99.90
11532;DHT22;5822;51.000;5.874;2023-04-16T09:42:31;11.50;99.90
11532;DHT22;5822;51.000;5.874;2023-04-16T09:44:58;11.60;99.90
11532;DHT22;5822;51.000;5.874;2023-04-16T09:47:50;11.50;99.90
11532;DHT22;5822;51.000;5.874;2023-04-16T09:50:17;11.50;99.90
11532;DHT22;5822;51.000;5.874;2023-04-16T09:52:47;11.60;99.90
11532;DHT22;5822;51.000;5.874;2023-04-16T09:55:12;11.60;99.90
11532;DHT22;5822;51.000;5.874;2023-04-16T09:57:38;11.60;99.90
11532;DHT22;5822;51.000;5.874;2023-04-16T10:00:06;11.70;99.90
11532;DHT22;5822;51.000;5.874;2023-04-16T10:02:33;11.70;99.90
11532;DHT22;5822;51.000;5.874;2023-04-16T10:05:02;11.70;99.90
11532;DHT22;5822;51.000;5.874;2023-04-16T10:07:32;11.80;99.90
11532;DHT22;5822;51.000;5.874;2023-04-16T10:09:58;11.80;99.90
11532;DHT22;5822;51.000;5.874;2023-04-16T10:12:23;11.80;99.90
11532;DHT22;5822;51.000;5.874;2023-04-16T10:14:49;11.80;99.90
11532;DHT22;5822;51.000;5.874;2023-04-16T10:17:15;11.90;99.90
11532;DHT22;5822;51.000;5.874;2023-04-16T10:19:41;11.90;99.90
11532;DHT22;5822;51.000;5.874;2023-04-16T10:22:07;11.90;99.90
11532;DHT22;5822;51.000;5.874;2023-04-16T10:24:33;11.90;99.90
11532;DHT22;5822;51.000;5.874;2023-04-16T10:27:00;11.90;99.90
11532;DHT22;5822;51.000;5.874;2023-04-16T10:29:29;11.90;99.90
11532;DHT22;5822;51.000;5.874;2023-04-16T10:31:56;11.90;99.90
11532;DHT22;5822;51.000;5.874;2023-04-16T10:34:23;11.90;99.90
11532;DHT22;5822;51.000;5.874;2023-04-16T10:36:53;11.90;99.90
11532;DHT22;5822;51.000;5.874;2023-04-16T10:39:23;11.90;99.90
11532;DHT22;5822;51.000;5.874;2023-04-16T10:41:50;12.00;99.90
11532;DHT22;5822;51.000;5.874;2023-04-16T10:44:17;12.00;99.90
11532;DHT22;5822;51.000;5.874;2023-04-16T10:46:46;12.00;99.90
11532;DHT22;5822;51.000;5.874;2023-04-16T10:49:16;12.10;99.90
11532;DHT22;5822;51.000;5.874;2023-04-16T10:51:58;12.00;99.90
11532;DHT22;5822;51.000;5.874;2023-04-16T10:54:28;12.00;99.90
11532;DHT22;5822;51.000;5.874;2023-04-16T10:56:59;12.00;99.90
11532;DHT22;5822;51.000;5.874;2023-04-16T10:59:30;12.10;99.90
11532;DHT22;5822;51.000;5.874;2023-04-16T11:01:58;12.10;99.90
11532;DHT22;5822;51.000;5.874;2023-04-16T11:04:28;12.20;99.90
11532;DHT22;5822;51.000;5.874;2023-04-16T11:09:54;12.30;99.90
11532;DHT22;5822;51.000;5.874;2023-04-16T11:12:39;12.40;99.90
11532;DHT22;5822;51.000;5.874;2023-04-16T11:19:58;12.60;99.90
11532;DHT22;5822;51.000;5.874;2023-04-16T11:22:24;12.70;99.90
11532;DHT22;5822;51.000;5.874;2023-04-16T11:24:54;12.80;99.90
11532;DHT22;5822;51.000;5.874;2023-04-16T11:27:22;12.80;99.90
11532;DHT22;5822;51.000;5.874;2023-04-16T11:29:56;12.90;99.90
11532;DHT22;5822;51.000;5.874;2023-04-16T11:32:23;13.00;99.90
11532;DHT22;5822;51.000;5.874;2023-04-16T11:34:48;12.90;99.90
11532;DHT22;5822;51.000;5.874;2023-04-16T11:37:17;12.90;99.90
11532;DHT22;5822;51.000;5.874;2023-04-16T11:39:52;13.00;99.90
11532;DHT22;5822;51.000;5.874;2023-04-16T11:42:19;13.10;99.90
11532;DHT22;5822;51.000;5.874;2023-04-16T11:44:45;13.10;99.90
11532;DHT22;5822;51.000;5.874;2023-04-16T11:47:11;13.20;99.90
11532;DHT22;5822;51.000;5.874;2023-04-16T11:49:38;13.30;99.90
11532;DHT22;5822;51.000;5.874;2023-04-16T11:52:03;13.40;99.90
11532;DHT22;5822;51.000;5.874;2023-04-16T11:54:29;13.40;99.90
11532;DHT22;5822;51.000;5.874;2023-04-16T11:56:59;13.40;99.90
11532;DHT22;5822;51.000;5.874;2023-04-16T11:59:25;13.50;99.90
11532;DHT22;5822;51.000;5.874;2023-04-16T12:01:52;13.60;99.90
11532;DHT22;5822;51.000;5.874;2023-04-16T12:04:23;13.60;99.90
11532;DHT22;5822;51.000;5.874;2023-04-16T12:07:10;13.60;99.90
11532;DHT22;5822;51.000;5.874;2023-04-16T12:09:38;13.60;99.90
11532;DHT22;5822;51.000;5.874;2023-04-16T12:12:04;13.60;99.90
11532;DHT22;5822;51.000;5.874;2023-04-16T12:14:30;13.70;99.90
11532;DHT22;5822;51.000;5.874;2023-04-16T12:17:21;13.70;99.90
11532;DHT22;5822;51.000;5.874;2023-04-16T12:20:10;13.80;99.90
11532;DHT22;5822;51.000;5.874;2023-04-16T12:22:38;13.90;99.90
11532;DHT22;5822;51.000;5.874;2023-04-16T12:25:12;13.80;99.90
11532;DHT22;5822;51.000;5.874;2023-04-16T12:27:47;13.70;99.90
11532;DHT22;5822;51.000;5.874;2023-04-16T12:30:14;13.60;99.90
11532;DHT22;5822;51.000;5.874;2023-04-16T12:32:41;13.60;99.90
11532;DHT22;5822;51.000;5.874;2023-04-16T12:35:07;13.40;99.90
11532;DHT22;5822;51.000;5.874;2023-04-16T12:37:33;13.30;99.90
11532;DHT22;5822;51.000;5.874;2023-04-16T12:40:00;13.30;99.90
11532;DHT22;5822;51.000;5.874;2023-04-16T12:42:26;13.30;99.90
11532;DHT22;5822;51.000;5.874;2023-04-16T12:44:52;13.30;99.90
11532;DHT22;5822;51.000;5.874;2023-04-16T12:47:18;13.30;99.90
11532;DHT22;5822;51.000;5.874;2023-04-16T12:49:43;13.30;99.90
11532;DHT22;5822;51.000;5.874;2023-04-16T12:52:10;13.40;99.90
11532;DHT22;5822;51.000;5.874;2023-04-16T12:54:35;13.30;99.90
11532;DHT22;5822;51.000;5.874;2023-04-16T12:57:01;13.30;99.90
11532;DHT22;5822;51.000;5.874;2023-04-16T12:59:27;13.30;99.90
11532;DHT22;5822;51.000;5.874;2023-04-16T13:01:52;13.30;99.90
11532;DHT22;5822;51.000;5.874;2023-04-16T13:04:18;13.40;99.90
11532;DHT22;5822;51.000;5.874;2023-04-16T13:06:44;13.30;99.90
11532;DHT22;5822;51.000;5.874;2023-04-16T13:09:10;13.30;99.90
11532;DHT22;5822;51.000;5.874;2023-04-16T13:11:36;13.30;99.90
11532;DHT22;5822;51.000;5.874;2023-04-16T13:14:02;13.20;99.90
11532;DHT22;5822;51.000;5.874;2023-04-16T13:16:27;13.20;99.90
11532;DHT22;5822;51.000;5.874;2023-04-16T13:18:53;13.20;99.90
11532;DHT22;5822;51.000;5.874;2023-04-16T13:21:19;13.20;99.90
11532;DHT22;5822;51.000;5.874;2023-04-16T13:23:44;13.20;99.90
11532;DHT22;5822;51.000;5.874;2023-04-16T13:26:10;13.20;99.90
11532;DHT22;5822;51.000;5.874;2023-04-16T13:28:39;13.20;99.90
11532;DHT22;5822;51.000;5.874;2023-04-16T13:31:04;13.30;99.90
11532;DHT22;5822;51.000;5.874;2023-04-16T13:33:30;13.30;99.90
11532;DHT22;5822;51.000;5.874;2023-04-16T13:35:56;13.20;99.90
11532;DHT22;5822;51.000;5.874;2023-04-16T13:38:21;13.30;99.90
11532;DHT22;5822;51.000;5.874;2023-04-16T13:40:47;13.30;99.90
11532;DHT22;5822;51.000;5.874;2023-04-16T13:43:13;13.30;99.90
11532;DHT22;5822;51.000;5.874;2023-04-16T13:45:40;13.30;99.90
11532;DHT22;5822;51.000;5.874;2023-04-16T13:48:06;13.20;99.90
11532;DHT22;5822;51.000;5.874;2023-04-16T13:50:32;13.20;99.90
11532;DHT22;5822;51.000;5.874;2023-04-16T13:52:58;13.20;99.90
11532;DHT22;5822;51.000;5.874;2023-04-16T13:55:23;13.20;99.90
11532;DHT22;5822;51.000;5.874;2023-04-16T13:57:49;13.20;99.90
11532;DHT22;5822;51.000;5.874;2023-04-16T14:00:17;13.20;99.90
11532;DHT22;5822;51.000;5.874;2023-04-16T14:02:42;13.20;99.90
11532;DHT22;5822;51.000;5.874;2023-04-16T14:05:10;13.20;99.90
11532;DHT22;5822;51.000;5.874;2023-04-16T14:07:36;13.20;99.90
11532;DHT22;5822;51.000;5.874;2023-04-16T14:10:02;13.20;99.90
11532;DHT22;5822;51.000;5.874;2023-04-16T14:12:28;13.20;99.90
11532;DHT22;5822;51.000;5.874;2023-04-16T14:14:53;13.30;99.90
11532;DHT22;5822;51.000;5.874;2023-04-16T14:17:19;13.30;99.90
11532;DHT22;5822;51.000;5.874;2023-04-16T14:19:45;13.30;99.90
11532;DHT22;5822;51.000;5.874;2023-04-16T14:22:10;13.30;99.90
11532;DHT22;5822;51.000;5.874;2023-04-16T14:24:36;13.40;99.90
11532;DHT22;5822;51.000;5.874;2023-04-16T14:27:02;13.40;99.90
11532;DHT22;5822;51.000;5.874;2023-04-16T14:29:28;13.40;99.90
11532;DHT22;5822;51.000;5.874;2023-04-16T14:31:53;13.40;99.90
11532;DHT22;5822;51.000;5.874;2023-04-16T14:34:19;13.40;99.90
11532;DHT22;5822;51.000;5.874;2023-04-16T14:36:45;13.40;99.90
11532;DHT22;5822;51.000;5.874;2023-04-16T14:39:10;13.40;99.90
11532;DHT22;5822;51.000;5.874;2023-04-16T14:41:36;13.40;99.90
11532;DHT22;5822;51.000;5.874;2023-04-16T14:44:02;13.40;99.90
11532;DHT22;5822;51.000;5.874;2023-04-16T14:46:30;13.40;99.90
11532;DHT22;5822;51.000;5.874;2023-04-16T14:48:58;13.50;99.90
11532;DHT22;5822;51.000;5.874;2023-04-16T14:51:23;13.50;99.90
11532;DHT22;5822;51.000;5.874;2023-04-16T14:53:49;13.50;99.90
11532;DHT22;5822;51.000;5.874;2023-04-16T14:56:15;13.50;99.90
11532;DHT22;5822;51.000;5.874;2023-04-16T14:58:42;13.50;99.90
11532;DHT22;5822;51.000;5.874;2023-04-16T15:01:08;13.60;99.90
11532;DHT22;5822;51.000;5.874;2023-04-16T15:03:34;13.60;99.90
11532;DHT22;5822;51.000;5.874;2023-04-16T15:06:00;13.70;99.90
11532;DHT22;5822;51.000;5.874;2023-04-16T15:08:26;13.70;99.90
11532;DHT22;5822;51.000;5.874;2023-04-16T15:10:52;13.70;99.90
11532;DHT22;5822;51.000;5.874;2023-04-16T15:13:17;13.70;99.90
11532;DHT22;5822;51.000;5.874;2023-04-16T15:15:43;13.70;99.90
11532;DHT22;5822;51.000;5.874;2023-04-16T15:18:09;13.60;99.90
11532;DHT22;5822;51.000;5.874;2023-04-16T15:20:35;13.70;99.90
11532;DHT22;5822;51.000;5.874;2023-04-16T15:23:01;13.70;99.90
11532;DHT22;5822;51.000;5.874;2023-04-16T15:25:27;13.70;99.90
11532;DHT22;5822;51.000;5.874;2023-04-16T15:27:53;13.70;99.90
11532;DHT22;5822;51.000;5.874;2023-04-16T15:30:19;13.70;99.90
11532;DHT22;5822;51.000;5.874;2023-04-16T15:32:45;13.80;99.90
11532;DHT22;5822;51.000;5.874;2023-04-16T15:35:11;13.80;99.90
11532;DHT22;5822;51.000;5.874;2023-04-16T15:37:37;13.80;99.90
11532;DHT22;5822;51.000;5.874;2023-04-16T15:40:04;13.80;99.90
11532;DHT22;5822;51.000;5.874;2023-04-16T15:42:32;13.90;99.90
11532;DHT22;5822;51.000;5.874;2023-04-16T15:44:58;13.80;99.90
11532;DHT22;5822;51.000;5.874;2023-04-16T15:47:24;13.90;99.90
11532;DHT22;5822;51.000;5.874;2023-04-16T15:49:50;13.80;99.90
11532;DHT22;5822;51.000;5.874;2023-04-16T15:52:15;13.90;99.90